createdAt,value
2022-08-19T00:00:48.603Z,95.30
2022-08-19T00:02:53.281Z,95.20
2022-08-19T00:04:57.869Z,95.30
2022-08-19T00:07:04.699Z,94.90
2022-08-19T00:09:11.277Z,94.90
2022-08-19T00:11:18.646Z,94.90
2022-08-19T00:13:30.317Z,94.80
2022-08-19T00:15:34.985Z,94.60
2022-08-19T00:17:41.990Z,94.60
2022-08-19T00:19:46.907Z,94.50
2022-08-19T00:21:51.332Z,94.60
2022-08-19T00:23:59.311Z,94.80
2022-08-19T00:26:04.670Z,94.70
2022-08-19T00:28:09.218Z,94.60
2022-08-19T00:30:14.732Z,94.80
2022-08-19T00:32:19.424Z,94.50
2022-08-19T00:34:24.751Z,94.70
2022-08-19T00:36:29.716Z,94.70
2022-08-19T00:38:37.289Z,94.70
2022-08-19T00:40:47.551Z,94.50
2022-08-19T00:42:55.020Z,94.70
2022-08-19T00:44:59.829Z,94.60
2022-08-19T00:47:05.082Z,94.50
2022-08-19T00:49:22.026Z,94.60
2022-08-19T00:51:27.781Z,94.40
2022-08-19T00:53:35.485Z,94.50
2022-08-19T00:55:41.435Z,94.70
2022-08-19T00:57:51.567Z,94.60
2022-08-19T01:00:02.449Z,95.00
2022-08-19T01:02:10.545Z,94.30
2022-08-19T01:04:15.487Z,94.30
2022-08-19T01:06:20.826Z,94.50
2022-08-19T01:08:25.694Z,94.40
2022-08-19T01:10:36.815Z,94.80
2022-08-19T01:12:41.927Z,94.80
2022-08-19T01:14:49.081Z,94.90
2022-08-19T01:16:55.809Z,94.80
2022-08-19T01:19:00.334Z,94.90
2022-08-19T01:21:10.062Z,95.00
2022-08-19T01:23:17.454Z,95.10
2022-08-19T01:25:26.557Z,95.00
2022-08-19T01:27:43.725Z,95.10
2022-08-19T01:29:49.089Z,95.10
2022-08-19T01:31:54.735Z,95.40
2022-08-19T01:34:00.587Z,95.50
2022-08-19T01:36:11.103Z,95.40
2022-08-19T01:38:27.226Z,95.60
2022-08-19T01:40:35.030Z,95.60
2022-08-19T01:42:39.477Z,95.40
2022-08-19T01:44:43.929Z,95.40
2022-08-19T01:46:50.489Z,95.50
2022-08-19T01:48:54.932Z,95.20
2022-08-19T01:50:59.428Z,95.30
2022-08-19T01:53:06.837Z,95.10
2022-08-19T01:55:18.858Z,95.00
2022-08-19T01:57:23.376Z,95.10
2022-08-19T01:59:27.939Z,94.80
2022-08-19T02:01:33.709Z,95.00
2022-08-19T02:03:38.424Z,95.00
2022-08-19T02:05:43.958Z,95.20
2022-08-19T02:07:49.050Z,95.80
2022-08-19T02:09:53.756Z,95.90
2022-08-19T02:11:59.765Z,96.00
2022-08-19T02:14:07.836Z,96.60
2022-08-19T02:16:13.650Z,96.40
2022-08-19T02:18:18.557Z,96.70
2022-08-19T02:20:23.675Z,96.70
2022-08-19T02:22:28.558Z,96.90
2022-08-19T02:24:33.157Z,96.80
2022-08-19T02:26:37.815Z,96.80
2022-08-19T02:28:45.143Z,96.80
2022-08-19T02:30:49.987Z,96.70
2022-08-19T02:32:54.619Z,96.70
2022-08-19T02:34:59.066Z,96.40
2022-08-19T02:37:04.039Z,96.40
2022-08-19T02:39:07.661Z,96.70
2022-08-19T02:41:16.324Z,96.90
2022-08-19T02:43:22.699Z,97.20
2022-08-19T02:45:29.499Z,97.40
2022-08-19T02:47:34.597Z,97.50
2022-08-19T02:49:39.211Z,97.10
2022-08-19T02:51:45.671Z,97.40
2022-08-19T02:53:50.357Z,97.40
2022-08-19T02:55:55.470Z,98.00
2022-08-19T02:58:00.960Z,97.70
2022-08-19T03:00:09.477Z,97.80
2022-08-19T03:02:16.624Z,98.00
2022-08-19T03:04:21.699Z,97.90
2022-08-19T03:06:26.710Z,97.80
2022-08-19T03:08:31.186Z,98.40
2022-08-19T03:10:35.820Z,98.40
2022-08-19T03:12:41.143Z,98.30
2022-08-19T03:14:50.951Z,98.50
2022-08-19T03:16:56.198Z,98.50
2022-08-19T03:19:02.584Z,98.40
2022-08-19T03:21:19.078Z,98.30
2022-08-19T03:23:24.254Z,98.30
2022-08-19T03:25:28.924Z,98.30
2022-08-19T03:27:34.430Z,98.80
2022-08-19T03:29:43.109Z,99.20
2022-08-19T03:31:51.190Z,99.30
2022-08-19T03:33:57.338Z,99.20
2022-08-19T03:36:13.319Z,98.90
2022-08-19T03:38:17.894Z,98.70
2022-08-19T03:40:27.125Z,98.60
2022-08-19T03:42:48.527Z,98.60
2022-08-19T03:44:53.943Z,98.60
2022-08-19T03:47:01.511Z,98.60
2022-08-19T03:49:08.683Z,98.50
2022-08-19T03:51:31.053Z,98.30
2022-08-19T03:53:37.844Z,97.70
2022-08-19T03:55:43.392Z,97.50
2022-08-19T03:57:49.754Z,96.90
2022-08-19T03:59:54.195Z,96.80
2022-08-19T04:02:12.179Z,96.60
2022-08-19T04:04:16.680Z,96.00
2022-08-19T04:06:28.275Z,95.90
2022-08-19T04:08:32.749Z,95.20
2022-08-19T04:10:38.745Z,94.80
2022-08-19T04:12:43.824Z,94.50
2022-08-19T04:14:48.261Z,94.10
2022-08-19T04:16:53.947Z,93.50
2022-08-19T04:19:01.979Z,93.20
2022-08-19T04:21:07.858Z,93.30
2022-08-19T04:23:13.936Z,92.80
2022-08-19T04:25:18.797Z,92.40
2022-08-19T04:27:23.725Z,92.50
2022-08-19T04:29:28.661Z,91.60
2022-08-19T04:31:36.828Z,91.60
2022-08-19T04:33:41.809Z,91.30
2022-08-19T04:35:49.477Z,90.50
2022-08-19T04:37:53.989Z,90.10
2022-08-19T04:40:17.214Z,89.80
2022-08-19T04:42:38.987Z,88.90
2022-08-19T04:44:46.403Z,88.30
2022-08-19T04:46:52.918Z,87.30
2022-08-19T04:48:58.003Z,87.70
2022-08-19T04:51:02.585Z,87.60
2022-08-19T04:53:06.977Z,86.20
2022-08-19T04:55:15.467Z,85.70
2022-08-19T04:57:19.900Z,85.40
2022-08-19T04:59:24.487Z,84.10
2022-08-19T05:01:31.159Z,83.40
2022-08-19T05:03:36.193Z,82.80
2022-08-19T05:05:44.708Z,81.50
2022-08-19T05:07:49.601Z,80.60
2022-08-19T05:09:58.013Z,80.60
2022-08-19T05:12:06.893Z,79.90
2022-08-19T05:14:13.537Z,79.50
2022-08-19T05:16:20.116Z,78.70
2022-08-19T05:18:41.837Z,78.00
2022-08-19T05:21:03.719Z,78.10
2022-08-19T05:23:20.641Z,78.70
2022-08-19T05:25:26.811Z,78.40
2022-08-19T05:27:33.358Z,78.10
2022-08-19T05:29:37.877Z,77.50
2022-08-19T05:31:43.147Z,76.40
2022-08-19T05:33:47.676Z,76.30
2022-08-19T05:35:52.527Z,75.90
2022-08-19T05:37:59.023Z,75.30
2022-08-19T05:40:04.153Z,75.10
2022-08-19T05:42:12.108Z,74.80
2022-08-19T05:44:19.626Z,74.70
2022-08-19T05:46:27.762Z,74.60
2022-08-19T05:48:32.758Z,74.10
2022-08-19T05:50:38.743Z,73.30
2022-08-19T05:52:43.793Z,72.60
2022-08-19T05:54:56.881Z,72.50
2022-08-19T05:57:03.123Z,72.10
2022-08-19T05:59:10.132Z,71.90
2022-08-19T06:01:18.506Z,71.90
2022-08-19T06:03:23.189Z,71.30
2022-08-19T06:05:28.026Z,70.40
2022-08-19T06:07:32.742Z,70.60
2022-08-19T06:09:38.405Z,70.70
2022-08-19T06:11:46.057Z,70.20
2022-08-19T06:13:59.415Z,69.70
2022-08-19T06:16:05.785Z,69.60
2022-08-19T06:18:12.875Z,69.40
2022-08-19T06:20:34.389Z,69.60
2022-08-19T06:22:45.107Z,69.70
2022-08-19T06:24:53.730Z,69.20
2022-08-19T06:27:01.614Z,69.40
2022-08-19T06:29:07.637Z,68.80
2022-08-19T06:31:15.035Z,69.20
2022-08-19T06:33:20.701Z,69.30
2022-08-19T06:35:26.458Z,70.20
2022-08-19T06:37:30.938Z,69.30
2022-08-19T06:39:42.589Z,69.30
2022-08-19T06:41:52.517Z,68.40
2022-08-19T06:43:59.460Z,68.70
2022-08-19T06:46:04.732Z,68.00
2022-08-19T06:48:11.681Z,68.30
2022-08-19T06:50:17.491Z,67.70
2022-08-19T06:52:24.784Z,67.40
2022-08-19T06:54:31.078Z,67.60
2022-08-19T06:56:35.839Z,68.00
2022-08-19T06:58:40.194Z,67.60
2022-08-19T07:00:44.759Z,67.40
2022-08-19T07:02:53.414Z,66.30
2022-08-19T07:05:03.602Z,66.10
2022-08-19T07:07:19.968Z,66.00
2022-08-19T07:09:25.280Z,65.90
2022-08-19T07:11:30.065Z,66.40
2022-08-19T07:13:37.512Z,66.70
2022-08-19T07:15:41.692Z,66.30
2022-08-19T07:17:52.496Z,66.00
2022-08-19T07:19:57.404Z,65.90
2022-08-19T07:22:04.202Z,66.10
2022-08-19T07:24:10.586Z,65.90
2022-08-19T07:26:16.929Z,65.10
2022-08-19T07:28:24.182Z,64.40
2022-08-19T07:30:29.383Z,63.50
2022-08-19T07:32:36.402Z,64.40
2022-08-19T07:34:44.007Z,64.20
2022-08-19T07:36:48.532Z,64.20
2022-08-19T07:38:55.910Z,63.80
2022-08-19T07:41:02.838Z,63.60
2022-08-19T07:43:08.539Z,64.10
2022-08-19T07:45:18.972Z,63.50
2022-08-19T07:47:49.490Z,63.80
2022-08-19T07:49:48.491Z,63.60
2022-08-19T07:51:56.992Z,63.00
2022-08-19T07:54:38.986Z,62.70
2022-08-19T07:56:45.645Z,62.40
2022-08-19T07:58:52.824Z,62.50
2022-08-19T08:00:57.500Z,63.10
2022-08-19T08:03:02.071Z,63.90
2022-08-19T08:05:50.214Z,63.90
2022-08-19T08:08:12.280Z,63.40
2022-08-19T08:10:21.199Z,63.00
2022-08-19T08:12:34.582Z,63.60
2022-08-19T08:14:47.155Z,63.80
2022-08-19T08:16:53.701Z,62.90
2022-08-19T08:19:01.022Z,62.90
2022-08-19T08:21:07.071Z,63.60
2022-08-19T08:23:27.469Z,64.20
2022-08-19T08:25:34.243Z,64.00
2022-08-19T08:27:42.321Z,63.60
2022-08-19T08:29:47.780Z,63.70
2022-08-19T08:31:58.440Z,62.10
2022-08-19T08:34:07.373Z,61.90
2022-08-19T08:36:12.748Z,62.30
2022-08-19T08:38:18.937Z,62.90
2022-08-19T08:40:28.757Z,62.40
2022-08-19T08:42:39.454Z,62.60
2022-08-19T08:47:00.496Z,62.30
2022-08-19T08:49:09.989Z,62.60
2022-08-19T08:51:34.462Z,62.70
2022-08-19T08:53:42.026Z,63.20
2022-08-19T08:55:48.516Z,61.70
2022-08-19T08:58:01.017Z,62.00
2022-08-19T09:00:15.672Z,63.60
2022-08-19T09:02:21.381Z,63.30
2022-08-19T09:04:25.858Z,62.90
2022-08-19T09:06:40.850Z,62.40
2022-08-19T09:08:56.872Z,61.20
2022-08-19T09:18:03.860Z,60.60
2022-08-19T09:28:27.111Z,58.90
2022-08-19T09:31:34.436Z,60.00
2022-08-19T09:34:24.056Z,60.30
2022-08-19T09:46:58.192Z,59.30
2022-08-19T09:50:24.533Z,58.40
2022-08-19T09:53:26.189Z,58.20
2022-08-19T09:56:58.281Z,57.90
2022-08-19T10:00:38.625Z,57.30
2022-08-19T10:03:55.685Z,57.80
2022-08-19T10:07:20.958Z,58.90
2022-08-19T11:39:39.355Z,57.60
2022-08-19T12:38:32.251Z,55.40
2022-08-19T12:53:25.788Z,57.70
2022-08-19T12:56:57.211Z,57.80
2022-08-19T13:00:27.744Z,57.90
2022-08-19T13:07:40.555Z,57.70
2022-08-19T13:10:23.410Z,57.50
2022-08-19T13:13:32.576Z,57.10
2022-08-19T13:16:38.811Z,56.30
2022-08-19T13:20:26.819Z,55.90
2022-08-19T13:24:14.603Z,55.30
2022-08-19T13:27:00.212Z,55.00
2022-08-19T13:34:11.589Z,55.00
2022-08-19T13:42:06.181Z,55.10
2022-08-19T13:51:15.019Z,54.80
2022-08-19T14:26:03.506Z,54.00
2022-08-19T14:29:41.072Z,54.30
2022-08-19T14:34:24.007Z,54.00
2022-08-19T14:53:28.246Z,53.20
2022-08-19T15:31:53.460Z,54.90
2022-08-19T15:36:04.575Z,55.00
2022-08-19T15:44:57.834Z,54.50
2022-08-19T15:47:46.122Z,54.60
2022-08-19T15:50:31.980Z,54.80
2022-08-19T15:53:45.390Z,54.80
2022-08-19T15:56:41.879Z,55.30
2022-08-19T16:00:11.570Z,55.70
2022-08-19T16:05:52.177Z,56.30
2022-08-19T16:08:55.996Z,56.40
2022-08-19T16:12:21.618Z,58.60
2022-08-19T16:22:48.399Z,61.60
2022-08-19T16:25:49.340Z,62.30
2022-08-19T16:28:06.986Z,62.80
2022-08-19T16:30:19.115Z,63.00
2022-08-19T16:32:23.840Z,63.00
2022-08-19T16:34:28.096Z,63.20
2022-08-19T16:36:33.459Z,63.40
2022-08-19T16:38:38.381Z,63.40
2022-08-19T16:40:46.659Z,64.00
2022-08-19T16:42:52.467Z,64.10
2022-08-19T16:44:58.471Z,64.40
2022-08-19T16:47:04.880Z,64.30
2022-08-19T16:49:10.716Z,64.20
2022-08-19T16:51:16.736Z,64.20
2022-08-19T16:53:23.609Z,64.60
2022-08-19T16:55:36.693Z,64.80
2022-08-19T16:57:41.643Z,64.80
2022-08-19T16:59:48.707Z,64.80
2022-08-19T17:02:08.665Z,65.10
2022-08-19T17:04:20.417Z,65.40
2022-08-19T17:06:27.471Z,65.30
2022-08-19T17:08:34.547Z,65.80
2022-08-19T17:10:39.482Z,66.10
2022-08-19T17:12:46.414Z,66.40
2022-08-19T17:14:51.114Z,66.80
2022-08-19T17:16:57.082Z,66.50
2022-08-19T17:19:05.218Z,66.90
2022-08-19T17:21:14.746Z,67.20
2022-08-19T17:23:19.561Z,67.10
2022-08-19T17:25:36.013Z,67.20
2022-08-19T17:27:42.164Z,67.60
2022-08-19T17:29:47.236Z,68.00
2022-08-19T17:31:51.870Z,68.10
2022-08-19T17:33:59.064Z,68.00
2022-08-19T17:36:06.542Z,68.10
2022-08-19T17:38:13.913Z,68.00
2022-08-19T17:40:23.832Z,68.40
2022-08-19T17:42:32.157Z,68.50
2022-08-19T17:44:40.952Z,68.70
2022-08-19T17:46:46.862Z,69.00
2022-08-19T17:48:58.694Z,69.00
2022-08-19T17:51:16.314Z,69.00
2022-08-19T17:53:21.211Z,69.40
2022-08-19T17:55:26.313Z,69.40
2022-08-19T17:57:31.966Z,69.50
2022-08-19T17:59:37.692Z,69.90
2022-08-19T18:01:52.041Z,69.80
2022-08-19T18:03:59.016Z,70.60
2022-08-19T18:06:04.969Z,70.30
2022-08-19T18:08:12.948Z,70.20
2022-08-19T18:10:19.103Z,70.40
2022-08-19T18:12:26.927Z,70.50
2022-08-19T18:14:36.043Z,70.40
2022-08-19T18:16:40.954Z,70.20
2022-08-19T18:18:46.226Z,70.40
2022-08-19T18:20:50.793Z,70.40
2022-08-19T18:22:57.361Z,70.40
2022-08-19T18:25:04.878Z,70.60
2022-08-19T18:27:10.302Z,70.60
2022-08-19T18:29:20.016Z,70.60
2022-08-19T18:31:24.985Z,70.60
2022-08-19T18:33:29.960Z,70.60
2022-08-19T18:35:36.950Z,70.80
2022-08-19T18:37:41.709Z,70.60
2022-08-19T18:40:05.734Z,70.80
2022-08-19T18:42:32.708Z,71.10
2022-08-19T18:44:59.267Z,71.20
2022-08-19T18:47:21.888Z,71.40
2022-08-19T18:49:32.193Z,71.50
2022-08-19T18:51:36.858Z,71.50
2022-08-19T18:53:43.071Z,71.40
2022-08-19T18:55:55.497Z,71.60
2022-08-19T18:58:03.359Z,71.50
2022-08-19T19:00:09.546Z,71.20
2022-08-19T19:02:15.195Z,71.30
2022-08-19T19:04:22.316Z,71.70
2022-08-19T19:06:30.004Z,71.70
2022-08-19T19:08:35.071Z,71.60
2022-08-19T19:10:41.240Z,71.50
2022-08-19T19:12:48.502Z,71.80
2022-08-19T19:14:52.995Z,72.20
2022-08-19T19:16:57.879Z,72.30
2022-08-19T19:19:02.457Z,72.50
2022-08-19T19:21:08.105Z,72.50
2022-08-19T19:23:12.659Z,72.60
2022-08-19T19:25:20.086Z,72.40
2022-08-19T19:27:29.374Z,72.30
2022-08-19T19:29:37.081Z,72.30
2022-08-19T19:31:43.852Z,72.50
2022-08-19T19:33:48.348Z,72.80
2022-08-19T19:35:53.194Z,73.10
2022-08-19T19:37:57.968Z,73.30
2022-08-19T19:40:02.757Z,73.40
2022-08-19T19:42:12.500Z,73.30
2022-08-19T19:44:32.496Z,73.20
2022-08-19T19:46:40.753Z,72.80
2022-08-19T19:48:46.516Z,73.20
2022-08-19T19:50:56.130Z,73.40
2022-08-19T19:53:00.985Z,73.90
2022-08-19T19:55:06.492Z,74.40
2022-08-19T19:57:11.366Z,74.30
2022-08-19T19:59:16.899Z,74.20
2022-08-19T20:01:27.361Z,74.50
2022-08-19T20:03:33.846Z,74.60
2022-08-19T20:05:38.751Z,74.90
2022-08-19T20:08:00.315Z,74.70
2022-08-19T20:10:05.202Z,74.80
2022-08-19T20:12:12.138Z,74.60
2022-08-19T20:14:19.651Z,74.40
2022-08-19T20:16:25.839Z,74.70
2022-08-19T20:18:31.813Z,74.50
2022-08-19T20:20:37.756Z,74.50
2022-08-19T20:22:44.081Z,74.50
2022-08-19T20:24:48.621Z,74.40
2022-08-19T20:26:54.375Z,74.30
2022-08-19T20:29:13.874Z,74.10
2022-08-19T20:31:30.066Z,73.70
2022-08-19T20:33:40.623Z,74.00
2022-08-19T20:35:46.914Z,74.10
2022-08-19T20:37:57.987Z,73.90
2022-08-19T20:40:03.138Z,74.00
2022-08-19T20:42:07.902Z,74.30
2022-08-19T20:44:12.724Z,74.50
2022-08-19T20:46:17.611Z,74.40
2022-08-19T20:48:22.348Z,74.30
2022-08-19T20:50:30.369Z,74.40
2022-08-19T20:52:38.607Z,74.40
2022-08-19T20:54:43.399Z,74.80
2022-08-19T20:56:48.171Z,74.80
2022-08-19T20:58:59.369Z,74.80
2022-08-19T21:01:05.896Z,74.80
2022-08-19T21:03:10.394Z,74.60
2022-08-19T21:05:15.468Z,74.60
2022-08-19T21:07:20.026Z,74.70
2022-08-19T21:09:26.428Z,75.00
2022-08-19T21:11:31.289Z,75.00
2022-08-19T21:13:36.321Z,74.90
2022-08-19T21:15:43.472Z,75.00
2022-08-19T21:17:52.023Z,75.10
2022-08-19T21:19:58.685Z,75.00
2022-08-19T21:22:03.183Z,75.60
2022-08-19T21:24:10.780Z,74.80
2022-08-19T21:26:18.583Z,74.80
2022-08-19T21:28:34.425Z,74.70
2022-08-19T21:30:42.437Z,74.90
2022-08-19T21:32:52.282Z,75.40
2022-08-19T21:34:57.401Z,76.00
2022-08-19T21:37:02.255Z,75.80
2022-08-19T21:39:07.382Z,75.40
2022-08-19T21:41:11.769Z,75.50
2022-08-19T21:43:18.341Z,75.30
2022-08-19T21:45:23.173Z,75.30
2022-08-19T21:47:27.922Z,75.80
2022-08-19T21:49:34.125Z,77.60
2022-08-19T21:51:38.688Z,77.50
2022-08-19T21:53:43.606Z,77.70
2022-08-19T21:55:53.425Z,78.20
2022-08-19T21:58:00.214Z,79.10
2022-08-19T22:00:09.660Z,79.70
2022-08-19T22:02:20.533Z,79.40
2022-08-19T22:04:25.601Z,79.80
2022-08-19T22:06:31.047Z,78.30
2022-08-19T22:08:35.743Z,78.50
2022-08-19T22:10:40.443Z,78.90
2022-08-19T22:12:46.080Z,78.80
2022-08-19T22:14:58.638Z,79.00
2022-08-19T22:17:05.857Z,79.40
2022-08-19T22:19:10.341Z,79.40
2022-08-19T22:21:15.470Z,80.10
2022-08-19T22:23:29.527Z,80.30
2022-08-19T22:25:37.248Z,80.80
2022-08-19T22:27:42.575Z,80.90
2022-08-19T22:29:47.543Z,80.90
2022-08-19T22:31:58.304Z,81.30
2022-08-19T22:34:05.191Z,81.30
2022-08-19T22:36:10.532Z,82.00
2022-08-19T22:38:16.514Z,82.10
2022-08-19T22:40:21.924Z,81.60
2022-08-19T22:42:31.856Z,81.90
2022-08-19T22:44:37.716Z,82.70
2022-08-19T22:46:43.058Z,82.30
2022-08-19T22:48:56.676Z,82.20
2022-08-19T22:51:25.315Z,82.40
2022-08-19T22:53:31.934Z,82.40
2022-08-19T22:55:37.595Z,82.70
2022-08-19T22:57:42.004Z,82.90
2022-08-19T22:59:46.640Z,83.20
2022-08-19T23:01:51.045Z,83.30
2022-08-19T23:03:56.681Z,83.80
2022-08-19T23:06:01.538Z,83.50
2022-08-19T23:08:07.758Z,83.90
2022-08-19T23:10:12.584Z,84.10
2022-08-19T23:12:17.694Z,83.80
2022-08-19T23:14:23.444Z,83.40
2022-08-19T23:16:28.985Z,83.10
2022-08-19T23:18:33.930Z,82.70
2022-08-19T23:20:41.099Z,82.00
2022-08-19T23:22:48.028Z,82.00
2022-08-19T23:24:55.974Z,81.40
2022-08-19T23:27:18.119Z,81.00
2022-08-19T23:29:40.166Z,80.90
2022-08-19T23:31:44.956Z,80.00
2022-08-19T23:33:51.888Z,80.00
2022-08-19T23:35:59.972Z,79.90
2022-08-19T23:38:05.099Z,79.80
2022-08-19T23:40:12.546Z,79.70
2022-08-19T23:42:17.077Z,79.70
2022-08-19T23:44:22.102Z,79.60
2022-08-19T23:46:28.214Z,79.50
2022-08-19T23:48:34.489Z,79.40
2022-08-19T23:50:42.123Z,79.10
2022-08-19T23:52:48.740Z,79.20
2022-08-19T23:54:53.122Z,79.20
2022-08-19T23:56:59.200Z,79.50
2022-08-19T23:59:03.755Z,79.40
